createdAt,value
2023-03-07T00:03:25.117Z,96764.31
2023-03-07T00:23:27.761Z,96766.16
2023-03-07T00:43:30.220Z,96760.22
2023-03-07T01:03:33.775Z,96748.88
2023-03-07T01:23:37.333Z,96734.69
2023-03-07T02:03:56.147Z,96698.03
2023-03-07T03:04:44.718Z,96682.78
2023-03-07T03:45:31.205Z,96685.34
2023-03-07T05:06:20.588Z,96683.19
2023-03-07T05:46:38.835Z,96673.00
2023-03-07T06:06:41.412Z,96665.16
2023-03-07T06:26:44.154Z,96673.38
2023-03-07T06:46:46.780Z,96660.13
2023-03-07T07:06:49.258Z,96660.47
2023-03-07T07:26:51.829Z,96647.19
2023-03-07T07:46:54.538Z,96646.84
2023-03-07T08:06:57.034Z,96630.72
2023-03-07T08:27:00.222Z,96627.62
2023-03-07T08:47:02.875Z,96608.69
2023-03-07T09:07:14.988Z,96607.09
2023-03-07T09:27:20.632Z,96600.56
2023-03-07T09:47:23.457Z,96572.75
2023-03-07T10:07:25.969Z,96558.16
2023-03-07T10:27:28.600Z,96546.03
2023-03-07T10:47:31.585Z,96531.69
2023-03-07T11:07:35.148Z,96495.25
2023-03-07T11:27:37.737Z,96473.78
2023-03-07T11:47:40.551Z,96460.28
2023-03-07T12:07:43.245Z,96442.63
2023-03-07T12:27:45.962Z,96432.97
2023-03-07T12:47:48.587Z,96427.13
2023-03-07T13:07:51.828Z,96425.91
2023-03-07T13:27:54.350Z,96400.00
2023-03-07T13:47:56.867Z,96383.50
2023-03-07T14:07:59.569Z,96366.91
2023-03-07T14:28:02.361Z,96344.69
2023-03-07T14:48:04.858Z,96333.38
2023-03-07T15:08:08.076Z,96329.00
2023-03-07T15:28:11.209Z,96313.84
2023-03-07T19:32:23.006Z,96290.69
2023-03-07T19:52:25.670Z,96280.84
2023-03-07T20:12:29.265Z,96268.78
2023-03-07T20:32:31.914Z,96252.75
2023-03-07T20:52:34.681Z,96237.31
2023-03-07T21:12:37.505Z,96243.13
